WMKJ/JHB METAR and TAF weather

Enter ICAO airport designator
Station Type Date Time Source
WMKJ METAR 2019/12/07 17:00 UTC NOAA

WMKJ 071700Z 02005KT 320V060 9999 FEW023 SCT130 BKN280 26/24 Q1012


Station Type Date Time Source
WMKJ Decoded METAR 2019/12/07 17:00 UTC NOAA

Johore Bharu / Senai, Malaysia (WMKJ) 01-38N 103-40E 40M
Dec 07, 2019 - 12:00 PM EST / 2019.12.07 1700 UTC
Wind: from the NNE (020 degrees) at 6 MPH (5 KT) (direction variable):0
Visibility: greater than 7 mile(s):0
Sky conditions: mostly cloudy
Temperature: 78 F (26 C)
Dew Point: 75 F (24 C)
Relative Humidity: 88%
Pressure (altimeter): 29.88 in. Hg (1012 hPa)
ob: WMKJ 071700Z 02005KT 320V060 9999 FEW023 SCT130 BKN280 26/24 Q1012
cycle: 17

Station Type Date Time Source
WMKJ TAF 2019/12/07 18:09 UTC NOAA

TAF TAF WMKJ 071700Z 0718/0818 04006KT 9999 FEW023
TEMPO 0806/0810 03010G20KT 4000 TSRA FEW010 FEW017CB SCT020

Example: see airport list